^^
Station Historical Data
Daily Summary for August 14, 2021 Units:  English    Metric   Both
Daily Weekly Monthly Yearly
  High: Low: Average:
Temperature: 70.5 °F 64.8 °F 67.4 °F
Dew Point: 63.5 °F 51 °F 55.1 °F
Humidity: 85% 56% 65%
Wind Speed: 5mph 0mph 2.4mph
Wind Gust: 9mph - -
Wind- - SSE
Pressure: 30.24 in 30.05 in -
Precipitation: 0.00 in    
 
 
Tabular Data for August 14, 2021
Time Temperature Dew Point Pressure Wind Wind Speed Wind Gust Humidity Rainfall Rate (Hourly) solar
00:00 69.6 °F 63.2 °F 30.05 in Calm     80% 0.00 in 0 W/m2
00:05 69.5 °F 63.1 °F 30.05 in ESE 1 mph 1 mph 80% 0.00 in 0 W/m2
00:10 69.5 °F 63.1 °F 30.05 in Calm   1 mph 80% 0.00 in 0 W/m2
00:15 69.3 °F 62.9 °F 30.05 in Calm   1 mph 80% 0.00 in 0 W/m2
00:20 69.3 °F 62.9 °F 30.05 in NE 1 mph 1 mph 80% 0.00 in 0 W/m2
00:25 69.2 °F 62.8 °F 30.05 in NE 1 mph 1 mph 80% 0.00 in 0 W/m2
00:30 69.1 °F 62.7 °F 30.05 in SE 1 mph 1 mph 80% 0.00 in 0 W/m2
00:35 69 °F 62.9 °F 30.05 in East 2 mph 2 mph 81% 0.00 in 0 W/m2
00:40 69 °F 62.9 °F 30.05 in East 1 mph 1 mph 81% 0.00 in 0 W/m2
00:45 68.9 °F 62.8 °F 30.05 in ENE 1 mph 1 mph 81% 0.00 in 0 W/m2
00:50 68.9 °F 62.8 °F 30.05 in Calm   1 mph 81% 0.00 in 0 W/m2
00:55 68.8 °F 62.7 °F 30.05 in Calm   1 mph 81% 0.00 in 0 W/m2
01:00 68.7 °F 62.6 °F 30.05 in Calm     81% 0.00 in 0 W/m2
01:05 68.6 °F 62.5 °F 30.05 in Calm     81% 0.00 in 0 W/m2
01:10 68.5 °F 62.8 °F 30.06 in Calm     82% 0.00 in 0 W/m2
01:15 68.5 °F 62.8 °F 30.05 in Calm   1 mph 82% 0.00 in 0 W/m2
01:20 68.5 °F 63.1 °F 30.05 in SE 1 mph 1 mph 83% 0.00 in 0 W/m2
01:25 68.4 °F 63 °F 30.06 in Calm   1 mph 83% 0.00 in 0 W/m2
01:30 68.4 °F 63 °F 30.06 in Calm     83% 0.00 in 0 W/m2
01:35 68.3 °F 62.9 °F 30.06 in Calm     83% 0.00 in 0 W/m2
01:40 68.2 °F 62.8 °F 30.06 in NW 1 mph 1 mph 83% 0.00 in 0 W/m2
01:45 68.2 °F 63.2 °F 30.06 in NE 1 mph 2 mph 84% 0.00 in 0 W/m2
01:50 68.1 °F 63.1 °F 30.06 in ENE 2 mph 5 mph 84% 0.00 in 0 W/m2
01:55 68.2 °F 63.5 °F 30.06 in NE 3 mph 5 mph 85% 0.00 in 0 W/m2
02:00 68.2 °F 63.2 °F 30.06 in SSE 5 mph 5 mph 84% 0.00 in 0 W/m2
02:05 68.1 °F 62.7 °F 30.07 in ENE 5 mph 5 mph 83% 0.00 in 0 W/m2
02:10 68 °F 62.3 °F 30.07 in NNE 5 mph 5 mph 82% 0.00 in 0 W/m2
02:15 67.9 °F 62.2 °F 30.07 in East 5 mph 5 mph 82% 0.00 in 0 W/m2
02:20 67.8 °F 61.8 °F 30.07 in NE 4 mph 4 mph 81% 0.00 in 0 W/m2
02:25 67.5 °F 59.7 °F 30.08 in ESE 5 mph 5 mph 76% 0.00 in 0 W/m2
02:30 67.4 °F 58.8 °F 30.08 in ENE 5 mph 5 mph 74% 0.00 in 0 W/m2
02:35 67.5 °F 58.5 °F 30.08 in NE 5 mph 5 mph 73% 0.00 in 0 W/m2
02:40 67.6 °F 58.2 °F 30.08 in NE 4 mph 5 mph 72% 0.00 in 0 W/m2
02:45 67.6 °F 57.9 °F 30.09 in NNE 4 mph 5 mph 71% 0.00 in 0 W/m2
02:50 67.6 °F 56.7 °F 30.08 in NE 5 mph 5 mph 68% 0.00 in 0 W/m2
02:55 67.5 °F 55.7 °F 30.09 in North 4 mph 6 mph 66% 0.00 in 0 W/m2
03:00 67.5 °F 54.9 °F 30.09 in ENE 4 mph 5 mph 64% 0.00 in 0 W/m2
03:05 67.5 °F 55.3 °F 30.09 in NNE 5 mph 5 mph 65% 0.00 in 0 W/m2
03:10 67.5 °F 54.5 °F 30.09 in ENE 4 mph 4 mph 63% 0.00 in 0 W/m2
03:15 67.4 °F 54.8 °F 30.09 in NNW 4 mph 8 mph 64% 0.00 in 0 W/m2
03:20 67.5 °F 54.5 °F 30.09 in NNE 4 mph 4 mph 63% 0.00 in 0 W/m2
03:25 67.4 °F 54.8 °F 30.10 in North 4 mph 7 mph 64% 0.00 in 0 W/m2
03:30 67.3 °F 53.8 °F 30.10 in NNE 5 mph 9 mph 62% 0.00 in 0 W/m2
03:35 67.2 °F 54.2 °F 30.10 in ENE 4 mph 9 mph 63% 0.00 in 0 W/m2
03:40 67.2 °F 54.2 °F 30.10 in North 4 mph 9 mph 63% 0.00 in 0 W/m2
03:45 67.2 °F 54.6 °F 30.10 in North 3 mph 9 mph 64% 0.00 in 0 W/m2
03:50 67.1 °F 53.6 °F 30.10 in WNW 4 mph 4 mph 62% 0.00 in 0 W/m2
03:55 67.1 °F 53.6 °F 30.10 in East 4 mph 4 mph 62% 0.00 in 0 W/m2
04:00 67.1 °F 54.1 °F 30.11 in NE 4 mph 4 mph 63% 0.00 in 0 W/m2
04:05 67 °F 54 °F 30.11 in North 4 mph 4 mph 63% 0.00 in 0 W/m2
04:10 66.9 °F 53.9 °F 30.11 in North 4 mph 9 mph 63% 0.00 in 0 W/m2
04:15 66.8 °F 54.2 °F 30.11 in NNE 4 mph 9 mph 64% 0.00 in 0 W/m2
04:20 66.7 °F 54.1 °F 30.11 in NNW 4 mph 4 mph 64% 0.00 in 0 W/m2
04:25 66.7 °F 54.1 °F 30.11 in NE 4 mph 4 mph 64% 0.00 in 0 W/m2
04:30 66.5 °F 53.9 °F 30.11 in ENE 3 mph 3 mph 64% 0.00 in 0 W/m2
04:35 66.5 °F 54.4 °F 30.12 in NNW 3 mph 4 mph 65% 0.00 in 0 W/m2
04:40 66.3 °F 53.8 °F 30.12 in ENE 3 mph 4 mph 64% 0.00 in 0 W/m2
04:45 66.3 °F 54.2 °F 30.12 in East 3 mph 4 mph 65% 0.00 in 0 W/m2
04:50 66.2 °F 54.5 °F 30.12 in NE 3 mph 5 mph 66% 0.00 in 0 W/m2
04:55 66.1 °F 53.6 °F 30.12 in NE 3 mph 5 mph 64% 0.00 in 0 W/m2
05:00 66.1 °F 52.3 °F 30.12 in NNW 3 mph 4 mph 61% 0.00 in 0 W/m2
05:05 66.1 °F 52.3 °F 30.12 in NE 3 mph 4 mph 61% 0.00 in 0 W/m2
05:10 66.1 °F 51.8 °F 30.12 in NNW 3 mph 3 mph 60% 0.00 in 0 W/m2
05:15 66.1 °F 51.8 °F 30.12 in NNE 3 mph 3 mph 60% 0.00 in 0 W/m2
05:20 66.1 °F 51.8 °F 30.13 in NNE 3 mph 5 mph 60% 0.00 in 0 W/m2
05:25 66.1 °F 51.8 °F 30.13 in ESE 3 mph 5 mph 60% 0.00 in 0 W/m2
05:30 65.9 °F 52.1 °F 30.13 in ESE 3 mph 3 mph 61% 0.00 in 0 W/m2
05:35 65.9 °F 52.1 °F 30.13 in NNW 3 mph 3 mph 61% 0.00 in 0 W/m2
05:40 65.8 °F 52 °F 30.14 in ENE 3 mph 4 mph 61% 0.00 in 0 W/m2
05:45 65.8 °F 52.4 °F 30.14 in NE 2 mph 4 mph 62% 0.00 in 0 W/m2
05:50 65.8 °F 52.4 °F 30.14 in East 2 mph 3 mph 62% 0.00 in 0 W/m2
05:55 65.6 °F 52.7 °F 30.14 in ENE 2 mph 3 mph 63% 0.00 in 0 W/m2
06:00 65.6 °F 53.1 °F 30.14 in North 2 mph 2 mph 64% 0.00 in 0 W/m2
06:05 65.5 °F 53 °F 30.15 in NE 2 mph 2 mph 64% 0.00 in 0 W/m2
06:10 65.4 °F 52.9 °F 30.15 in North 2 mph 8 mph 64% 0.00 in 0 W/m2
06:15 65.3 °F 52.8 °F 30.15 in NNE 2 mph 8 mph 64% 0.00 in 0 W/m2
06:20 65.2 °F 53.1 °F 30.15 in ENE 2 mph 2 mph 65% 0.00 in 0 W/m2
06:25 65.2 °F 53.6 °F 30.15 in North 2 mph 5 mph 66% 0.00 in 0 W/m2
06:30 65.1 °F 53 °F 30.15 in SW 2 mph 2 mph 65% 0.00 in 0 W/m2
06:35 65.1 °F 53.5 °F 30.16 in NE 2 mph 2 mph 66% 0.00 in 5 W/m2
06:40 65 °F 52.9 °F 30.16 in NNE 1 mph 2 mph 65% 0.00 in 7 W/m2
06:45 65 °F 53.4 °F 30.16 in NNE 1 mph 2 mph 66% 0.00 in 9 W/m2
06:50 64.9 °F 52.8 °F 30.16 in WNW 2 mph 2 mph 65% 0.00 in 12 W/m2
06:55 64.9 °F 52.8 °F 30.17 in NE 2 mph 2 mph 65% 0.00 in 14 W/m2
07:00 64.9 °F 53.3 °F 30.17 in ENE 2 mph 2 mph 66% 0.00 in 16 W/m2
07:05 64.9 °F 53.3 °F 30.17 in NE 1 mph 2 mph 66% 0.00 in 19 W/m2
07:10 64.8 °F 53.6 °F 30.17 in NE 1 mph 1 mph 67% 0.00 in 21 W/m2
07:15 64.8 °F 53.2 °F 30.17 in NNE 1 mph 1 mph 66% 0.00 in 25 W/m2
07:20 64.8 °F 53.2 °F 30.17 in NE 1 mph 2 mph 66% 0.00 in 28 W/m2
07:25 64.8 °F 53.6 °F 30.17 in NE 1 mph 2 mph 67% 0.00 in 28 W/m2
07:30 64.8 °F 53.2 °F 30.17 in East 2 mph 2 mph 66% 0.00 in 30 W/m2
07:35 64.8 °F 53.6 °F 30.17 in East 2 mph 2 mph 67% 0.00 in 32 W/m2
07:40 64.8 °F 51.9 °F 30.18 in NE 1 mph 2 mph 63% 0.00 in 37 W/m2
07:45 64.8 °F 51.5 °F 30.18 in NE 2 mph 3 mph 62% 0.00 in 37 W/m2
07:50 64.9 °F 51.6 °F 30.18 in SE 2 mph 2 mph 62% 0.00 in 37 W/m2
07:55 65 °F 51.2 °F 30.18 in North 1 mph 2 mph 61% 0.00 in 42 W/m2
08:00 65.1 °F 51.3 °F 30.18 in NW 1 mph 2 mph 61% 0.00 in 40 W/m2
08:05 65.2 °F 51 °F 30.18 in NE 1 mph 2 mph 60% 0.00 in 40 W/m2
08:10 65.4 °F 51.1 °F 30.18 in East 1 mph 1 mph 60% 0.00 in 42 W/m2
08:15 65.5 °F 51.2 °F 30.18 in East 1 mph 1 mph 60% 0.00 in 44 W/m2
08:20 65.6 °F 51.3 °F 30.18 in West 2 mph 2 mph 60% 0.00 in 47 W/m2
08:25 65.8 °F 52 °F 30.19 in ESE 2 mph 2 mph 61% 0.00 in 197 W/m2
08:30 65.9 °F 51.6 °F 30.19 in NW 1 mph 2 mph 60% 0.00 in 246 W/m2
08:35 66.1 °F 51.4 °F 30.19 in NW 2 mph 4 mph 59% 0.00 in 260 W/m2
08:40 66.3 °F 52 °F 30.20 in NNW 3 mph 3 mph 60% 0.00 in 276 W/m2
08:45 66.5 °F 52.2 °F 30.20 in NW 2 mph 3 mph 60% 0.00 in 288 W/m2
08:50 66.6 °F 51.4 °F 30.20 in NNW 2 mph 7 mph 58% 0.00 in 304 W/m2
08:55 66.8 °F 51.5 °F 30.20 in NW 3 mph 7 mph 58% 0.00 in 318 W/m2
09:00 67 °F 51.3 °F 30.20 in ENE 4 mph 4 mph 57% 0.00 in 332 W/m2
09:05 67.2 °F 51.4 °F 30.20 in NNW 3 mph 5 mph 57% 0.00 in 346 W/m2
09:10 67.4 °F 51.6 °F 30.20 in NW 3 mph 3 mph 57% 0.00 in 357 W/m2
09:15 67.6 °F 51.8 °F 30.20 in SE 2 mph 3 mph 57% 0.00 in 374 W/m2
09:20 67.7 °F 51.9 °F 30.20 in NW 2 mph 6 mph 57% 0.00 in 387 W/m2
09:25 67.8 °F 52.5 °F 30.21 in SE 2 mph 6 mph 58% 0.00 in 401 W/m2
09:30 67.9 °F 52.6 °F 30.21 in NNW 2 mph 5 mph 58% 0.00 in 417 W/m2
09:35 68 °F 52.7 °F 30.21 in NW 3 mph 6 mph 58% 0.00 in 427 W/m2
09:40 68.2 °F 52.9 °F 30.21 in NW 4 mph 4 mph 58% 0.00 in 441 W/m2
09:45 68.2 °F 51.9 °F 30.21 in NW 3 mph 4 mph 56% 0.00 in 457 W/m2
09:50 68.3 °F 52.5 °F 30.21 in NE 2 mph 2 mph 57% 0.00 in 469 W/m2
09:55 68.3 °F 53.4 °F 30.21 in ESE 2 mph 2 mph 59% 0.00 in 482 W/m2
10:00 68.4 °F 53.5 °F 30.21 in NNE 2 mph 2 mph 59% 0.00 in 496 W/m2
10:05 68.5 °F 52.7 °F 30.21 in North 3 mph 3 mph 57% 0.00 in 510 W/m2
10:10 68.6 °F 52.8 °F 30.21 in NNW 3 mph 3 mph 57% 0.00 in 522 W/m2
10:15 68.6 °F 53.2 °F 30.21 in North 2 mph 3 mph 58% 0.00 in 534 W/m2
10:20 68.6 °F 53.2 °F 30.21 in NW 2 mph 2 mph 58% 0.00 in 547 W/m2
10:25 68.7 °F 53.3 °F 30.21 in WNW 2 mph 2 mph 58% 0.00 in 557 W/m2
10:30 68.7 °F 53.3 °F 30.22 in North 2 mph 5 mph 58% 0.00 in 573 W/m2
10:35 68.8 °F 52.9 °F 30.22 in NE 3 mph 5 mph 57% 0.00 in 582 W/m2
10:40 68.8 °F 52.9 °F 30.22 in SE 3 mph 3 mph 57% 0.00 in 594 W/m2
10:45 68.9 °F 53 °F 30.22 in NNE 2 mph 3 mph 57% 0.00 in 605 W/m2
10:50 69 °F 53.1 °F 30.22 in WNW 2 mph 2 mph 57% 0.00 in 615 W/m2
10:55 69 °F 53.1 °F 30.22 in NNW 2 mph 2 mph 57% 0.00 in 628 W/m2
11:00 69 °F 53.1 °F 30.23 in ESE 3 mph 3 mph 57% 0.00 in 633 W/m2
11:05 69 °F 52.6 °F 30.23 in NNW 3 mph 5 mph 56% 0.00 in 643 W/m2
11:10 69.1 °F 52.7 °F 30.23 in NW 2 mph 2 mph 56% 0.00 in 652 W/m2
11:15 69.1 °F 52.7 °F 30.23 in WNW 2 mph 2 mph 56% 0.00 in 663 W/m2
11:20 69.1 °F 53.2 °F 30.23 in West 2 mph 2 mph 57% 0.00 in 675 W/m2
11:25 69.2 °F 53.3 °F 30.23 in West 3 mph 3 mph 57% 0.00 in 686 W/m2
11:30 69.2 °F 52.8 °F 30.23 in North 4 mph 4 mph 56% 0.00 in 694 W/m2
11:35 69.2 °F 53.3 °F 30.23 in North 3 mph 4 mph 57% 0.00 in 705 W/m2
11:40 69.3 °F 52.9 °F 30.24 in NW 3 mph 3 mph 56% 0.00 in 712 W/m2
11:45 69.5 °F 53.6 °F 30.24 in NW 3 mph 3 mph 57% 0.00 in 721 W/m2
11:50 69.5 °F 53.6 °F 30.24 in WNW 2 mph 2 mph 57% 0.00 in 729 W/m2
11:55 69.7 °F 54.3 °F 30.24 in West 2 mph 3 mph 58% 0.00 in 742 W/m2
12:00 69.7 °F 54.3 °F 30.24 in NNE 2 mph 2 mph 58% 0.00 in 747 W/m2
12:05 69.9 °F 54 °F 30.24 in NW 2 mph 2 mph 57% 0.00 in 754 W/m2
12:10 70 °F 54.1 °F 30.24 in NW 3 mph 4 mph 57% 0.00 in 761 W/m2
12:15 70.1 °F 54.2 °F 30.24 in WNW 3 mph 4 mph 57% 0.00 in 765 W/m2
12:20 70.2 °F 54.2 °F 30.24 in SE 2 mph 2 mph 57% 0.00 in 773 W/m2
12:25 70.5 °F 55.5 °F 30.24 in WNW 2 mph 4 mph 59% 0.00 in 780 W/m2
12:30 69.7 °F 53.8 °F 30.24 in North 2 mph 2 mph 57% 0.00 in 788 W/m2
12:35 69.8 °F 53.9 °F 30.24 in East 2 mph 2 mph 57% 0.00 in 795 W/m2
12:40 70.2 °F 54.7 °F 30.24 in NE 2 mph 2 mph 58% 0.00 in 798 W/m2
12:45 70.2 °F 55.2 °F 30.24 in NW 2 mph 3 mph 59% 0.00 in 802 W/m2
12:50 70.2 °F 56.1 °F 30.24 in West 2 mph 2 mph 61% 0.00 in 807 W/m2
Sand Point, Michigan, USA
Compliments of Weather Underground - 2 mb